Petersburg James A Johnson Airport (PSG/PAPG)




Flight Aircraft Arriving
GRZ5146 B722
B738
PAJN - Juneau International Airport
United StatesAlaska Juneau, Alaska
Flight Aircraft Departing
GRZ5145 B722
B738
PAJN - Juneau International Airport
United StatesAlaska Juneau, Alaska
Airport Information
Location: Petersburg, US
Coordinates: 56.8015 / -132.946
Elevation:
Time Offset:
Local Time:
UTC Time:
Jet A Price: $0.79/lbs

Current Weather
METAR: PAPG 052256Z 09004KT 10SM FEW012 BKN034 OVC055 15/12 RMK AO2 SLPNO VCSH NW A3015 T01500122 $
TAF: PAPG 051734Z 0518/0618 03004KT 4SM BR VCSH SCT010 BKN030 TEMPO 0518/0520 3SM BR OVC010 FM052100 VRB03KT P6SM SCT010 BKN050 FM061200 VRB02KT P6SM OVC025 AMD NOT SKED

Recent Arrivals
Date Flight Type Depart
Recent Departures
Date Flight Type Arrive